YFSK weather

Fiskville Airport
Fiskville, Victoria, Australia

Public forecast

Using degrees Celsius for public forecast. Weather courtesy of forecast.io.

METAR (pilot weather report)

Closest report is Avalon Airport, 24.7 nm (45.7 km) SSE. Retrieved 2018/08/16 12:30 UTC (13 minutes ago):

YMAV 161230Z AUTO 36005KT 9999 // OVC055 07/04 Q1013 RF00.0/000.0

TAF (pilot weather forecast)

Closest forecast is Avalon Airport, 24.7 nm (45.7 km) SSE. Retrieved 2018/08/16 12:00 UTC (43 minutes ago):

TAF YMAV 161130Z 1612/1712 32008KT CAVOK FM170000 32015G25KT CAVOK FM170800 35013KT 9999 FEW040